sensor_id;sensor_type;location;lat;lon;timestamp;temperature;humidity
35027;DHT22;60696;51.426;6.934;2023-02-10T00:02:23;4.90;99.90
35027;DHT22;60696;51.426;6.934;2023-02-10T00:04:49;4.90;99.90
35027;DHT22;60696;51.426;6.934;2023-02-10T00:07:16;4.90;99.90
35027;DHT22;60696;51.426;6.934;2023-02-10T00:09:42;4.90;99.90
35027;DHT22;60696;51.426;6.934;2023-02-10T00:12:08;4.90;99.90
35027;DHT22;60696;51.426;6.934;2023-02-10T00:14:35;4.90;99.90
35027;DHT22;60696;51.426;6.934;2023-02-10T00:17:01;4.90;99.90
35027;DHT22;60696;51.426;6.934;2023-02-10T00:19:28;4.80;99.90
35027;DHT22;60696;51.426;6.934;2023-02-10T00:21:53;4.90;99.90
35027;DHT22;60696;51.426;6.934;2023-02-10T00:24:20;4.90;99.90
35027;DHT22;60696;51.426;6.934;2023-02-10T00:26:46;4.80;99.90
35027;DHT22;60696;51.426;6.934;2023-02-10T00:29:12;4.80;99.90
35027;DHT22;60696;51.426;6.934;2023-02-10T00:31:38;4.80;99.90
35027;DHT22;60696;51.426;6.934;2023-02-10T00:34:03;4.80;99.90
35027;DHT22;60696;51.426;6.934;2023-02-10T00:36:29;4.80;99.90
35027;DHT22;60696;51.426;6.934;2023-02-10T00:38:55;4.80;99.90
35027;DHT22;60696;51.426;6.934;2023-02-10T00:41:22;4.80;99.90
35027;DHT22;60696;51.426;6.934;2023-02-10T00:43:48;4.70;99.90
35027;DHT22;60696;51.426;6.934;2023-02-10T00:46:16;4.80;99.90
35027;DHT22;60696;51.426;6.934;2023-02-10T00:48:42;4.80;99.90
35027;DHT22;60696;51.426;6.934;2023-02-10T00:51:08;4.90;99.90
35027;DHT22;60696;51.426;6.934;2023-02-10T00:53:34;4.90;99.90
35027;DHT22;60696;51.426;6.934;2023-02-10T00:56:00;4.80;99.90
35027;DHT22;60696;51.426;6.934;2023-02-10T00:58:26;4.80;99.90
35027;DHT22;60696;51.426;6.934;2023-02-10T01:00:53;4.80;99.90
35027;DHT22;60696;51.426;6.934;2023-02-10T01:03:19;4.80;99.90
35027;DHT22;60696;51.426;6.934;2023-02-10T01:05:44;4.80;99.90
35027;DHT22;60696;51.426;6.934;2023-02-10T01:08:11;4.80;99.90
35027;DHT22;60696;51.426;6.934;2023-02-10T01:10:37;4.80;99.90
35027;DHT22;60696;51.426;6.934;2023-02-10T01:13:03;4.70;99.90
35027;DHT22;60696;51.426;6.934;2023-02-10T01:15:29;4.70;99.90
35027;DHT22;60696;51.426;6.934;2023-02-10T01:17:55;4.80;99.90
35027;DHT22;60696;51.426;6.934;2023-02-10T01:20:21;4.80;99.90
35027;DHT22;60696;51.426;6.934;2023-02-10T01:22:46;4.80;99.90
35027;DHT22;60696;51.426;6.934;2023-02-10T01:25:12;4.80;99.90
35027;DHT22;60696;51.426;6.934;2023-02-10T01:27:37;4.70;99.90
35027;DHT22;60696;51.426;6.934;2023-02-10T01:30:03;4.70;99.90
35027;DHT22;60696;51.426;6.934;2023-02-10T01:32:29;4.70;99.90
35027;DHT22;60696;51.426;6.934;2023-02-10T01:34:54;4.80;99.90
35027;DHT22;60696;51.426;6.934;2023-02-10T01:37:20;4.80;99.90
35027;DHT22;60696;51.426;6.934;2023-02-10T01:39:46;4.70;99.90
35027;DHT22;60696;51.426;6.934;2023-02-10T01:42:15;4.70;99.90
35027;DHT22;60696;51.426;6.934;2023-02-10T01:47:07;4.80;99.90
35027;DHT22;60696;51.426;6.934;2023-02-10T01:49:39;4.80;99.90
35027;DHT22;60696;51.426;6.934;2023-02-10T01:52:14;4.70;99.90
35027;DHT22;60696;51.426;6.934;2023-02-10T01:54:45;4.70;99.90
35027;DHT22;60696;51.426;6.934;2023-02-10T01:57:13;4.80;99.90
35027;DHT22;60696;51.426;6.934;2023-02-10T01:59:40;4.70;99.90
35027;DHT22;60696;51.426;6.934;2023-02-10T02:02:07;4.70;99.90
35027;DHT22;60696;51.426;6.934;2023-02-10T02:04:40;4.70;99.90
35027;DHT22;60696;51.426;6.934;2023-02-10T02:07:09;4.70;99.90
35027;DHT22;60696;51.426;6.934;2023-02-10T02:09:34;4.80;99.90
35027;DHT22;60696;51.426;6.934;2023-02-10T02:18:37;4.70;99.90
35027;DHT22;60696;51.426;6.934;2023-02-10T02:26:45;4.60;99.90
35027;DHT22;60696;51.426;6.934;2023-02-10T02:32:44;4.50;99.90
35027;DHT22;60696;51.426;6.934;2023-02-10T02:35:21;4.40;99.90
35027;DHT22;60696;51.426;6.934;2023-02-10T02:37:50;4.20;99.90
35027;DHT22;60696;51.426;6.934;2023-02-10T02:40:18;4.10;99.90
35027;DHT22;60696;51.426;6.934;2023-02-10T02:42:44;4.00;99.90
35027;DHT22;60696;51.426;6.934;2023-02-10T02:45:17;3.90;99.90
35027;DHT22;60696;51.426;6.934;2023-02-10T02:50:52;3.70;99.90
35027;DHT22;60696;51.426;6.934;2023-02-10T03:01:18;3.50;99.90
35027;DHT22;60696;51.426;6.934;2023-02-10T03:03:52;3.50;99.90
35027;DHT22;60696;51.426;6.934;2023-02-10T03:06:18;3.50;99.90
35027;DHT22;60696;51.426;6.934;2023-02-10T03:08:44;3.40;99.90
35027;DHT22;60696;51.426;6.934;2023-02-10T03:11:09;3.40;99.90
35027;DHT22;60696;51.426;6.934;2023-02-10T03:13:35;3.30;99.90
35027;DHT22;60696;51.426;6.934;2023-02-10T03:16:01;3.10;99.90
35027;DHT22;60696;51.426;6.934;2023-02-10T03:18:27;3.00;99.90
35027;DHT22;60696;51.426;6.934;2023-02-10T03:20:53;3.00;99.90
35027;DHT22;60696;51.426;6.934;2023-02-10T03:23:19;3.00;99.90
35027;DHT22;60696;51.426;6.934;2023-02-10T03:25:45;3.00;99.90
35027;DHT22;60696;51.426;6.934;2023-02-10T03:28:11;3.00;99.90
35027;DHT22;60696;51.426;6.934;2023-02-10T03:30:37;3.10;99.90
35027;DHT22;60696;51.426;6.934;2023-02-10T03:33:03;3.10;99.90
35027;DHT22;60696;51.426;6.934;2023-02-10T03:35:29;3.10;99.90
35027;DHT22;60696;51.426;6.934;2023-02-10T03:37:54;3.10;99.90
35027;DHT22;60696;51.426;6.934;2023-02-10T03:40:20;3.00;99.90
35027;DHT22;60696;51.426;6.934;2023-02-10T03:42:46;3.00;99.90
35027;DHT22;60696;51.426;6.934;2023-02-10T03:45:11;3.00;99.90
35027;DHT22;60696;51.426;6.934;2023-02-10T03:47:37;3.00;99.90
35027;DHT22;60696;51.426;6.934;2023-02-10T03:50:02;3.00;99.90
35027;DHT22;60696;51.426;6.934;2023-02-10T03:52:28;3.00;99.90
35027;DHT22;60696;51.426;6.934;2023-02-10T03:54:54;3.00;99.90
35027;DHT22;60696;51.426;6.934;2023-02-10T03:57:19;2.90;99.90
35027;DHT22;60696;51.426;6.934;2023-02-10T03:59:45;2.90;99.90
35027;DHT22;60696;51.426;6.934;2023-02-10T04:02:10;2.90;99.90
35027;DHT22;60696;51.426;6.934;2023-02-10T04:04:36;2.80;99.90
35027;DHT22;60696;51.426;6.934;2023-02-10T04:07:03;2.80;99.90
35027;DHT22;60696;51.426;6.934;2023-02-10T04:09:29;2.80;99.90
35027;DHT22;60696;51.426;6.934;2023-02-10T04:11:54;2.70;99.90
35027;DHT22;60696;51.426;6.934;2023-02-10T04:14:20;2.70;99.90
35027;DHT22;60696;51.426;6.934;2023-02-10T04:16:45;2.70;99.90
35027;DHT22;60696;51.426;6.934;2023-02-10T04:19:11;2.70;99.90
35027;DHT22;60696;51.426;6.934;2023-02-10T04:21:37;2.60;99.90
35027;DHT22;60696;51.426;6.934;2023-02-10T04:24:02;2.60;99.90
35027;DHT22;60696;51.426;6.934;2023-02-10T04:26:28;2.50;99.90
35027;DHT22;60696;51.426;6.934;2023-02-10T04:28:54;2.50;99.90
35027;DHT22;60696;51.426;6.934;2023-02-10T04:31:19;2.50;99.90
35027;DHT22;60696;51.426;6.934;2023-02-10T04:33:45;2.50;99.90
35027;DHT22;60696;51.426;6.934;2023-02-10T04:36:10;2.50;99.90
35027;DHT22;60696;51.426;6.934;2023-02-10T04:38:36;2.60;99.90
35027;DHT22;60696;51.426;6.934;2023-02-10T04:41:02;2.70;99.90
35027;DHT22;60696;51.426;6.934;2023-02-10T04:43:28;2.80;99.90
35027;DHT22;60696;51.426;6.934;2023-02-10T04:45:54;2.80;99.90
35027;DHT22;60696;51.426;6.934;2023-02-10T04:48:20;2.90;99.90
35027;DHT22;60696;51.426;6.934;2023-02-10T04:50:46;3.00;99.90
35027;DHT22;60696;51.426;6.934;2023-02-10T04:53:12;3.00;99.90
35027;DHT22;60696;51.426;6.934;2023-02-10T04:55:38;2.90;99.90
35027;DHT22;60696;51.426;6.934;2023-02-10T04:58:04;3.00;99.90
35027;DHT22;60696;51.426;6.934;2023-02-10T05:00:29;3.00;99.90
35027;DHT22;60696;51.426;6.934;2023-02-10T05:02:56;2.90;99.90
35027;DHT22;60696;51.426;6.934;2023-02-10T05:05:22;2.90;99.90
35027;DHT22;60696;51.426;6.934;2023-02-10T05:07:50;2.90;99.90
35027;DHT22;60696;51.426;6.934;2023-02-10T05:10:15;2.90;99.90
35027;DHT22;60696;51.426;6.934;2023-02-10T05:12:41;2.90;99.90
35027;DHT22;60696;51.426;6.934;2023-02-10T05:15:07;3.00;99.90
35027;DHT22;60696;51.426;6.934;2023-02-10T05:17:33;3.00;99.90
35027;DHT22;60696;51.426;6.934;2023-02-10T05:19:59;3.00;99.90
35027;DHT22;60696;51.426;6.934;2023-02-10T05:22:24;3.10;99.90
35027;DHT22;60696;51.426;6.934;2023-02-10T05:24:55;3.10;99.90
35027;DHT22;60696;51.426;6.934;2023-02-10T05:27:22;3.00;99.90
35027;DHT22;60696;51.426;6.934;2023-02-10T05:29:48;3.10;99.90
35027;DHT22;60696;51.426;6.934;2023-02-10T05:32:14;3.10;99.90
35027;DHT22;60696;51.426;6.934;2023-02-10T05:34:40;3.20;99.90
35027;DHT22;60696;51.426;6.934;2023-02-10T05:37:05;3.20;99.90
35027;DHT22;60696;51.426;6.934;2023-02-10T05:39:31;3.20;99.90
35027;DHT22;60696;51.426;6.934;2023-02-10T05:41:58;3.20;99.90
35027;DHT22;60696;51.426;6.934;2023-02-10T05:44:25;3.20;99.90
35027;DHT22;60696;51.426;6.934;2023-02-10T05:46:51;3.20;99.90
35027;DHT22;60696;51.426;6.934;2023-02-10T05:49:17;3.40;99.90
35027;DHT22;60696;51.426;6.934;2023-02-10T05:51:44;3.30;99.90
35027;DHT22;60696;51.426;6.934;2023-02-10T05:54:10;3.40;99.90
35027;DHT22;60696;51.426;6.934;2023-02-10T05:56:36;3.40;99.90
35027;DHT22;60696;51.426;6.934;2023-02-10T05:59:01;3.40;99.90
35027;DHT22;60696;51.426;6.934;2023-02-10T06:01:27;3.40;99.90
35027;DHT22;60696;51.426;6.934;2023-02-10T06:03:53;3.40;99.90
35027;DHT22;60696;51.426;6.934;2023-02-10T06:06:19;3.40;99.90
35027;DHT22;60696;51.426;6.934;2023-02-10T06:08:44;3.40;99.90
35027;DHT22;60696;51.426;6.934;2023-02-10T06:11:10;3.40;99.90
35027;DHT22;60696;51.426;6.934;2023-02-10T06:13:36;3.40;99.90
35027;DHT22;60696;51.426;6.934;2023-02-10T06:16:02;3.40;99.90
35027;DHT22;60696;51.426;6.934;2023-02-10T06:18:29;3.40;99.90
35027;DHT22;60696;51.426;6.934;2023-02-10T06:20:55;3.50;99.90
35027;DHT22;60696;51.426;6.934;2023-02-10T06:23:22;3.50;99.90
35027;DHT22;60696;51.426;6.934;2023-02-10T06:25:48;3.50;99.90
35027;DHT22;60696;51.426;6.934;2023-02-10T06:28:14;3.50;99.90
35027;DHT22;60696;51.426;6.934;2023-02-10T06:30:41;3.50;99.90
35027;DHT22;60696;51.426;6.934;2023-02-10T06:33:07;3.50;99.90
35027;DHT22;60696;51.426;6.934;2023-02-10T06:35:32;3.60;99.90
35027;DHT22;60696;51.426;6.934;2023-02-10T06:37:58;3.60;99.90
35027;DHT22;60696;51.426;6.934;2023-02-10T06:40:24;3.60;99.90
35027;DHT22;60696;51.426;6.934;2023-02-10T06:42:49;3.60;99.90
35027;DHT22;60696;51.426;6.934;2023-02-10T06:45:15;3.60;99.90
35027;DHT22;60696;51.426;6.934;2023-02-10T06:47:41;3.60;99.90
35027;DHT22;60696;51.426;6.934;2023-02-10T06:50:07;3.70;99.90
35027;DHT22;60696;51.426;6.934;2023-02-10T06:52:34;3.70;99.90
35027;DHT22;60696;51.426;6.934;2023-02-10T06:55:04;3.70;99.90
35027;DHT22;60696;51.426;6.934;2023-02-10T06:57:29;3.70;99.90
35027;DHT22;60696;51.426;6.934;2023-02-10T06:59:55;3.60;99.90
35027;DHT22;60696;51.426;6.934;2023-02-10T07:02:21;3.40;99.90
35027;DHT22;60696;51.426;6.934;2023-02-10T07:04:46;3.40;99.90
35027;DHT22;60696;51.426;6.934;2023-02-10T07:07:12;3.40;99.90
35027;DHT22;60696;51.426;6.934;2023-02-10T07:09:37;3.40;99.90
35027;DHT22;60696;51.426;6.934;2023-02-10T07:12:03;3.40;99.90
35027;DHT22;60696;51.426;6.934;2023-02-10T07:14:29;3.40;99.90
35027;DHT22;60696;51.426;6.934;2023-02-10T07:16:54;3.50;99.90
35027;DHT22;60696;51.426;6.934;2023-02-10T07:19:20;3.50;99.90
35027;DHT22;60696;51.426;6.934;2023-02-10T07:21:45;3.50;99.90
35027;DHT22;60696;51.426;6.934;2023-02-10T07:24:11;3.60;99.90
35027;DHT22;60696;51.426;6.934;2023-02-10T07:26:37;3.60;99.90
35027;DHT22;60696;51.426;6.934;2023-02-10T07:29:02;3.60;99.90
35027;DHT22;60696;51.426;6.934;2023-02-10T07:31:28;3.60;99.90
35027;DHT22;60696;51.426;6.934;2023-02-10T07:33:54;3.60;99.90
35027;DHT22;60696;51.426;6.934;2023-02-10T07:36:19;3.60;99.90
35027;DHT22;60696;51.426;6.934;2023-02-10T07:38:45;3.60;99.90
35027;DHT22;60696;51.426;6.934;2023-02-10T07:41:11;3.60;99.90
35027;DHT22;60696;51.426;6.934;2023-02-10T07:43:37;3.50;99.90
35027;DHT22;60696;51.426;6.934;2023-02-10T07:46:02;3.50;99.90
35027;DHT22;60696;51.426;6.934;2023-02-10T07:48:28;3.60;99.90
35027;DHT22;60696;51.426;6.934;2023-02-10T07:50:53;3.60;99.90
35027;DHT22;60696;51.426;6.934;2023-02-10T07:53:20;3.70;99.90
35027;DHT22;60696;51.426;6.934;2023-02-10T07:55:46;3.70;99.90
35027;DHT22;60696;51.426;6.934;2023-02-10T07:58:12;3.70;99.90
35027;DHT22;60696;51.426;6.934;2023-02-10T08:00:38;3.60;99.90
35027;DHT22;60696;51.426;6.934;2023-02-10T08:03:04;3.60;99.90
35027;DHT22;60696;51.426;6.934;2023-02-10T08:05:30;3.60;99.90
35027;DHT22;60696;51.426;6.934;2023-02-10T08:07:56;3.60;99.90
35027;DHT22;60696;51.426;6.934;2023-02-10T08:10:22;3.60;99.90
35027;DHT22;60696;51.426;6.934;2023-02-10T08:12:47;3.70;99.90
35027;DHT22;60696;51.426;6.934;2023-02-10T08:15:14;3.80;99.90
35027;DHT22;60696;51.426;6.934;2023-02-10T08:17:43;4.00;99.90
35027;DHT22;60696;51.426;6.934;2023-02-10T08:20:09;4.00;99.90
35027;DHT22;60696;51.426;6.934;2023-02-10T08:22:35;3.90;99.90
35027;DHT22;60696;51.426;6.934;2023-02-10T08:25:01;4.00;99.90
35027;DHT22;60696;51.426;6.934;2023-02-10T08:27:27;4.10;99.90
35027;DHT22;60696;51.426;6.934;2023-02-10T08:29:54;4.30;99.90
35027;DHT22;60696;51.426;6.934;2023-02-10T08:32:20;4.50;99.90
35027;DHT22;60696;51.426;6.934;2023-02-10T08:34:47;4.80;99.90
35027;DHT22;60696;51.426;6.934;2023-02-10T08:37:13;5.20;99.90
35027;DHT22;60696;51.426;6.934;2023-02-10T08:39:39;5.60;99.90
35027;DHT22;60696;51.426;6.934;2023-02-10T08:42:04;5.90;99.90
35027;DHT22;60696;51.426;6.934;2023-02-10T08:44:30;6.00;99.90
35027;DHT22;60696;51.426;6.934;2023-02-10T08:46:55;6.30;99.90
35027;DHT22;60696;51.426;6.934;2023-02-10T08:49:21;6.20;99.90
35027;DHT22;60696;51.426;6.934;2023-02-10T08:51:50;5.90;99.90
35027;DHT22;60696;51.426;6.934;2023-02-10T08:54:16;5.40;99.90
35027;DHT22;60696;51.426;6.934;2023-02-10T08:56:41;5.20;99.90
35027;DHT22;60696;51.426;6.934;2023-02-10T08:59:07;5.00;99.90
35027;DHT22;60696;51.426;6.934;2023-02-10T09:01:33;4.90;99.90
35027;DHT22;60696;51.426;6.934;2023-02-10T09:03:58;4.70;99.90
35027;DHT22;60696;51.426;6.934;2023-02-10T09:06:28;4.80;99.90
35027;DHT22;60696;51.426;6.934;2023-02-10T09:08:55;4.90;99.90
35027;DHT22;60696;51.426;6.934;2023-02-10T09:11:23;4.90;99.90
35027;DHT22;60696;51.426;6.934;2023-02-10T09:13:52;4.80;99.90
35027;DHT22;60696;51.426;6.934;2023-02-10T09:16:18;4.90;99.90
35027;DHT22;60696;51.426;6.934;2023-02-10T09:18:44;5.00;99.90
35027;DHT22;60696;51.426;6.934;2023-02-10T09:21:10;5.00;99.90
35027;DHT22;60696;51.426;6.934;2023-02-10T09:23:36;5.10;99.90
35027;DHT22;60696;51.426;6.934;2023-02-10T09:26:02;5.20;99.90
35027;DHT22;60696;51.426;6.934;2023-02-10T09:28:28;5.10;99.90
35027;DHT22;60696;51.426;6.934;2023-02-10T09:30:54;5.60;99.90
35027;DHT22;60696;51.426;6.934;2023-02-10T09:33:20;5.90;99.90
35027;DHT22;60696;51.426;6.934;2023-02-10T09:35:46;6.60;99.90
35027;DHT22;60696;51.426;6.934;2023-02-10T09:38:13;7.30;99.90
35027;DHT22;60696;51.426;6.934;2023-02-10T09:49:54;8.60;99.90
35027;DHT22;60696;51.426;6.934;2023-02-10T09:57:45;8.10;99.90
35027;DHT22;60696;51.426;6.934;2023-02-10T10:00:28;8.70;99.90
35027;DHT22;60696;51.426;6.934;2023-02-10T10:02:55;9.50;99.90
35027;DHT22;60696;51.426;6.934;2023-02-10T10:08:27;11.40;99.90
35027;DHT22;60696;51.426;6.934;2023-02-10T10:11:01;12.00;99.90
35027;DHT22;60696;51.426;6.934;2023-02-10T10:13:28;12.30;99.90
35027;DHT22;60696;51.426;6.934;2023-02-10T10:21:43;12.30;99.90
35027;DHT22;60696;51.426;6.934;2023-02-10T10:26:55;13.40;98.90
35027;DHT22;60696;51.426;6.934;2023-02-10T10:29:34;13.40;98.30
35027;DHT22;60696;51.426;6.934;2023-02-10T10:32:38;12.90;98.00
35027;DHT22;60696;51.426;6.934;2023-02-10T10:35:20;11.10;99.90
35027;DHT22;60696;51.426;6.934;2023-02-10T10:37:58;9.70;99.90
35027;DHT22;60696;51.426;6.934;2023-02-10T10:40:28;9.00;99.90
35027;DHT22;60696;51.426;6.934;2023-02-10T10:42:58;9.00;99.90
35027;DHT22;60696;51.426;6.934;2023-02-10T10:45:33;8.80;99.90
35027;DHT22;60696;51.426;6.934;2023-02-10T10:48:08;8.60;99.90
35027;DHT22;60696;51.426;6.934;2023-02-10T10:50:35;8.30;99.90
35027;DHT22;60696;51.426;6.934;2023-02-10T10:53:05;8.30;99.90
35027;DHT22;60696;51.426;6.934;2023-02-10T10:55:41;9.10;99.90
35027;DHT22;60696;51.426;6.934;2023-02-10T10:58:29;10.20;99.90
35027;DHT22;60696;51.426;6.934;2023-02-10T11:00:58;11.00;99.90
35027;DHT22;60696;51.426;6.934;2023-02-10T11:03:25;10.90;99.90
35027;DHT22;60696;51.426;6.934;2023-02-10T11:06:13;11.20;99.90
35027;DHT22;60696;51.426;6.934;2023-02-10T11:09:03;11.50;99.90
35027;DHT22;60696;51.426;6.934;2023-02-10T11:11:38;12.40;99.90
35027;DHT22;60696;51.426;6.934;2023-02-10T11:14:17;12.80;99.90
35027;DHT22;60696;51.426;6.934;2023-02-10T11:16:48;13.20;99.90
35027;DHT22;60696;51.426;6.934;2023-02-10T11:19:27;14.40;98.20
35027;DHT22;60696;51.426;6.934;2023-02-10T11:21:54;14.90;94.30
35027;DHT22;60696;51.426;6.934;2023-02-10T11:24:24;15.60;92.00
35027;DHT22;60696;51.426;6.934;2023-02-10T11:27:04;15.70;90.50
35027;DHT22;60696;51.426;6.934;2023-02-10T11:29:39;15.50;89.70
35027;DHT22;60696;51.426;6.934;2023-02-10T11:32:05;14.60;90.50
35027;DHT22;60696;51.426;6.934;2023-02-10T11:36:59;14.40;93.40
35027;DHT22;60696;51.426;6.934;2023-02-10T11:39:35;13.70;93.30
35027;DHT22;60696;51.426;6.934;2023-02-10T11:42:32;12.50;96.30
35027;DHT22;60696;51.426;6.934;2023-02-10T11:47:37;11.50;99.90
35027;DHT22;60696;51.426;6.934;2023-02-10T11:50:04;11.50;99.90
35027;DHT22;60696;51.426;6.934;2023-02-10T11:52:30;12.90;99.90
35027;DHT22;60696;51.426;6.934;2023-02-10T11:54:58;14.30;96.80
35027;DHT22;60696;51.426;6.934;2023-02-10T11:57:52;15.60;92.30
35027;DHT22;60696;51.426;6.934;2023-02-10T12:03:46;14.60;90.90
35027;DHT22;60696;51.426;6.934;2023-02-10T12:06:36;13.30;92.70
35027;DHT22;60696;51.426;6.934;2023-02-10T12:09:09;11.60;97.80
35027;DHT22;60696;51.426;6.934;2023-02-10T12:12:02;10.90;99.90
35027;DHT22;60696;51.426;6.934;2023-02-10T12:15:12;10.50;99.90
35027;DHT22;60696;51.426;6.934;2023-02-10T12:18:04;10.00;99.90
35027;DHT22;60696;51.426;6.934;2023-02-10T12:26:27;9.20;99.90
35027;DHT22;60696;51.426;6.934;2023-02-10T12:29:13;9.30;99.90
35027;DHT22;60696;51.426;6.934;2023-02-10T12:32:00;9.30;99.90
35027;DHT22;60696;51.426;6.934;2023-02-10T12:34:48;10.00;99.90
35027;DHT22;60696;51.426;6.934;2023-02-10T12:37:38;10.70;99.90
35027;DHT22;60696;51.426;6.934;2023-02-10T12:40:24;11.80;99.90
35027;DHT22;60696;51.426;6.934;2023-02-10T12:43:20;13.30;99.90
35027;DHT22;60696;51.426;6.934;2023-02-10T12:46:01;14.00;93.70
35027;DHT22;60696;51.426;6.934;2023-02-10T12:53:46;15.20;85.70
35027;DHT22;60696;51.426;6.934;2023-02-10T12:56:26;15.10;76.50
35027;DHT22;60696;51.426;6.934;2023-02-10T13:01:33;14.90;77.90
35027;DHT22;60696;51.426;6.934;2023-02-10T13:09:09;12.50;91.70
35027;DHT22;60696;51.426;6.934;2023-02-10T13:14:51;11.90;93.40
35027;DHT22;60696;51.426;6.934;2023-02-10T13:17:18;11.50;92.60
35027;DHT22;60696;51.426;6.934;2023-02-10T13:20:07;11.00;92.50
35027;DHT22;60696;51.426;6.934;2023-02-10T13:22:53;10.70;94.60
35027;DHT22;60696;51.426;6.934;2023-02-10T13:25:34;10.50;96.70
35027;DHT22;60696;51.426;6.934;2023-02-10T13:28:22;10.30;98.70
35027;DHT22;60696;51.426;6.934;2023-02-10T13:36:15;9.80;99.90
35027;DHT22;60696;51.426;6.934;2023-02-10T13:38:43;9.80;99.90
35027;DHT22;60696;51.426;6.934;2023-02-10T13:41:24;9.70;99.90
35027;DHT22;60696;51.426;6.934;2023-02-10T13:46:55;9.70;99.90
35027;DHT22;60696;51.426;6.934;2023-02-10T13:49:22;9.60;99.90
35027;DHT22;60696;51.426;6.934;2023-02-10T13:51:50;9.50;99.90
35027;DHT22;60696;51.426;6.934;2023-02-10T13:54:27;9.60;99.90
35027;DHT22;60696;51.426;6.934;2023-02-10T13:56:56;9.40;99.90
35027;DHT22;60696;51.426;6.934;2023-02-10T14:02:17;9.20;99.90
35027;DHT22;60696;51.426;6.934;2023-02-10T14:04:49;9.30;99.90
35027;DHT22;60696;51.426;6.934;2023-02-10T14:10:06;9.10;99.90
35027;DHT22;60696;51.426;6.934;2023-02-10T14:12:32;9.00;99.90
35027;DHT22;60696;51.426;6.934;2023-02-10T14:15:25;9.00;99.90
35027;DHT22;60696;51.426;6.934;2023-02-10T14:18:00;8.90;99.90
35027;DHT22;60696;51.426;6.934;2023-02-10T14:20:37;8.90;99.90
35027;DHT22;60696;51.426;6.934;2023-02-10T14:23:05;8.90;99.90
35027;DHT22;60696;51.426;6.934;2023-02-10T14:25:38;9.00;99.90
35027;DHT22;60696;51.426;6.934;2023-02-10T14:28:06;8.90;99.90
35027;DHT22;60696;51.426;6.934;2023-02-10T14:30:43;8.90;99.90
35027;DHT22;60696;51.426;6.934;2023-02-10T14:33:30;9.00;99.90
35027;DHT22;60696;51.426;6.934;2023-02-10T14:35:58;9.00;99.90
35027;DHT22;60696;51.426;6.934;2023-02-10T14:38:28;9.10;99.90
35027;DHT22;60696;51.426;6.934;2023-02-10T14:40:56;9.10;99.90
35027;DHT22;60696;51.426;6.934;2023-02-10T14:43:25;9.00;99.90
35027;DHT22;60696;51.426;6.934;2023-02-10T14:45:52;9.00;99.90
35027;DHT22;60696;51.426;6.934;2023-02-10T14:48:19;8.80;99.90
35027;DHT22;60696;51.426;6.934;2023-02-10T14:51:00;8.50;99.90
35027;DHT22;60696;51.426;6.934;2023-02-10T14:53:26;8.40;99.90
35027;DHT22;60696;51.426;6.934;2023-02-10T14:55:56;8.30;99.90
35027;DHT22;60696;51.426;6.934;2023-02-10T14:58:22;8.20;99.90
35027;DHT22;60696;51.426;6.934;2023-02-10T15:01:20;8.10;99.90
35027;DHT22;60696;51.426;6.934;2023-02-10T15:03:47;8.20;99.90
35027;DHT22;60696;51.426;6.934;2023-02-10T15:06:19;8.20;99.90
35027;DHT22;60696;51.426;6.934;2023-02-10T15:08:55;8.10;99.90
35027;DHT22;60696;51.426;6.934;2023-02-10T15:11:30;8.10;99.90
35027;DHT22;60696;51.426;6.934;2023-02-10T15:14:35;8.10;99.90
35027;DHT22;60696;51.426;6.934;2023-02-10T15:17:06;8.20;99.90
35027;DHT22;60696;51.426;6.934;2023-02-10T15:19:33;8.30;99.90
35027;DHT22;60696;51.426;6.934;2023-02-10T15:21:59;8.30;99.90
35027;DHT22;60696;51.426;6.934;2023-02-10T15:24:26;8.20;99.90
35027;DHT22;60696;51.426;6.934;2023-02-10T15:26:52;8.20;99.90
35027;DHT22;60696;51.426;6.934;2023-02-10T15:29:18;8.30;99.90
35027;DHT22;60696;51.426;6.934;2023-02-10T15:31:55;8.20;99.90
35027;DHT22;60696;51.426;6.934;2023-02-10T15:34:29;8.10;99.90
35027;DHT22;60696;51.426;6.934;2023-02-10T15:36:58;8.00;99.90
35027;DHT22;60696;51.426;6.934;2023-02-10T15:39:31;7.90;99.90
35027;DHT22;60696;51.426;6.934;2023-02-10T15:42:02;7.80;99.90
35027;DHT22;60696;51.426;6.934;2023-02-10T15:47:20;7.60;99.90
35027;DHT22;60696;51.426;6.934;2023-02-10T15:50:08;7.50;99.90
35027;DHT22;60696;51.426;6.934;2023-02-10T15:52:39;7.50;99.90
35027;DHT22;60696;51.426;6.934;2023-02-10T15:55:14;7.50;99.90
35027;DHT22;60696;51.426;6.934;2023-02-10T15:57:40;7.40;99.90
35027;DHT22;60696;51.426;6.934;2023-02-10T16:00:21;7.40;99.90
35027;DHT22;60696;51.426;6.934;2023-02-10T16:02:47;7.30;99.90
35027;DHT22;60696;51.426;6.934;2023-02-10T16:05:13;7.30;99.90
35027;DHT22;60696;51.426;6.934;2023-02-10T16:07:38;7.30;99.90
35027;DHT22;60696;51.426;6.934;2023-02-10T16:10:04;7.20;99.90
35027;DHT22;60696;51.426;6.934;2023-02-10T16:12:30;7.20;99.90
35027;DHT22;60696;51.426;6.934;2023-02-10T16:14:56;7.00;99.90
35027;DHT22;60696;51.426;6.934;2023-02-10T16:17:29;7.00;99.90
35027;DHT22;60696;51.426;6.934;2023-02-10T16:19:55;6.90;99.90
35027;DHT22;60696;51.426;6.934;2023-02-10T16:22:21;6.90;99.90
35027;DHT22;60696;51.426;6.934;2023-02-10T16:24:46;6.90;99.90
35027;DHT22;60696;51.426;6.934;2023-02-10T16:27:14;6.90;99.90
35027;DHT22;60696;51.426;6.934;2023-02-10T16:29:39;6.80;99.90
35027;DHT22;60696;51.426;6.934;2023-02-10T16:32:05;6.70;99.90
35027;DHT22;60696;51.426;6.934;2023-02-10T16:34:31;6.70;99.90
35027;DHT22;60696;51.426;6.934;2023-02-10T16:36:57;6.60;99.90
35027;DHT22;60696;51.426;6.934;2023-02-10T16:39:24;6.60;99.90
35027;DHT22;60696;51.426;6.934;2023-02-10T16:41:51;6.50;99.90
35027;DHT22;60696;51.426;6.934;2023-02-10T16:44:17;6.50;99.90
35027;DHT22;60696;51.426;6.934;2023-02-10T16:46:44;6.40;99.90
35027;DHT22;60696;51.426;6.934;2023-02-10T16:49:12;6.40;99.90
35027;DHT22;60696;51.426;6.934;2023-02-10T16:51:39;6.40;99.90
35027;DHT22;60696;51.426;6.934;2023-02-10T16:54:04;6.30;99.90
35027;DHT22;60696;51.426;6.934;2023-02-10T16:56:37;6.30;99.90
35027;DHT22;60696;51.426;6.934;2023-02-10T16:59:03;6.30;99.90
35027;DHT22;60696;51.426;6.934;2023-02-10T17:01:30;6.30;99.90
35027;DHT22;60696;51.426;6.934;2023-02-10T17:03:59;6.30;99.90
35027;DHT22;60696;51.426;6.934;2023-02-10T17:06:26;6.30;99.90
35027;DHT22;60696;51.426;6.934;2023-02-10T17:08:52;6.30;99.90
35027;DHT22;60696;51.426;6.934;2023-02-10T17:11:18;6.30;99.90
35027;DHT22;60696;51.426;6.934;2023-02-10T17:13:44;6.30;99.90
35027;DHT22;60696;51.426;6.934;2023-02-10T17:16:40;6.10;99.90
35027;DHT22;60696;51.426;6.934;2023-02-10T17:19:05;6.10;99.90
35027;DHT22;60696;51.426;6.934;2023-02-10T17:21:31;6.00;99.90
35027;DHT22;60696;51.426;6.934;2023-02-10T17:23:57;6.00;99.90
35027;DHT22;60696;51.426;6.934;2023-02-10T17:26:23;6.00;99.90
35027;DHT22;60696;51.426;6.934;2023-02-10T17:28:48;6.10;99.90
35027;DHT22;60696;51.426;6.934;2023-02-10T17:31:19;6.20;99.90
35027;DHT22;60696;51.426;6.934;2023-02-10T17:33:46;6.30;99.90
35027;DHT22;60696;51.426;6.934;2023-02-10T17:36:20;6.30;99.90
35027;DHT22;60696;51.426;6.934;2023-02-10T17:38:46;6.30;99.90
35027;DHT22;60696;51.426;6.934;2023-02-10T17:41:12;6.30;99.90